createdAt,value
2019-04-25T00:02:27.433Z,62.06
2019-04-25T00:04:59.164Z,62.76
2019-04-25T00:07:31.272Z,62.69
2019-04-25T00:10:06.683Z,62.41
2019-04-25T00:12:38.382Z,62.33
2019-04-25T00:15:11.073Z,62.33
2019-04-25T00:17:44.441Z,62.10
2019-04-25T00:20:16.110Z,62.16
2019-04-25T00:22:53.349Z,62.25
2019-04-25T00:25:29.554Z,62.63
2019-04-25T00:28:01.842Z,62.92
2019-04-25T00:30:33.632Z,63.20
2019-04-25T00:33:05.683Z,63.21
2019-04-25T00:35:37.165Z,63.07
2019-04-25T00:38:08.625Z,62.98
2019-04-25T00:40:40.078Z,62.98
2019-04-25T00:43:13.247Z,62.95
2019-04-25T00:45:45.727Z,62.98
2019-04-25T00:48:17.494Z,63.05
2019-04-25T00:50:48.971Z,63.11
2019-04-25T00:53:21.233Z,63.23
2019-04-25T00:55:53.894Z,63.26
2019-04-25T00:58:27.199Z,63.35
2019-04-25T01:01:01.954Z,63.34
2019-04-25T01:03:35.438Z,63.82
2019-04-25T01:06:07.067Z,63.88
2019-04-25T01:08:38.747Z,63.97
2019-04-25T01:11:11.506Z,63.73
2019-04-25T01:13:43.073Z,63.52
2019-04-25T01:16:14.812Z,63.34
2019-04-25T01:18:46.805Z,63.17
2019-04-25T01:21:18.375Z,62.89
2019-04-25T01:23:49.998Z,62.68
2019-04-25T01:26:21.660Z,62.69
2019-04-25T01:28:54.067Z,62.67
2019-04-25T01:31:28.359Z,62.61
2019-04-25T01:33:59.991Z,63.13
2019-04-25T01:36:35.888Z,63.51
2019-04-25T01:39:14.297Z,63.71
2019-04-25T01:41:47.686Z,63.72
2019-04-25T01:44:20.807Z,63.88
2019-04-25T01:46:54.189Z,64.13
2019-04-25T01:49:25.965Z,63.98
2019-04-25T01:51:58.616Z,63.85
2019-04-25T01:54:31.019Z,64.09
2019-04-25T01:57:04.362Z,64.24
2019-04-25T01:59:36.145Z,64.60
2019-04-25T02:02:09.363Z,64.71
2019-04-25T02:04:40.937Z,64.50
2019-04-25T02:07:13.486Z,64.56
2019-04-25T02:09:45.242Z,64.63
2019-04-25T02:12:27.874Z,64.67
2019-04-25T02:14:59.918Z,64.90
2019-04-25T02:17:31.545Z,65.43
2019-04-25T02:20:05.214Z,66.26
2019-04-25T02:22:36.709Z,66.30
2019-04-25T02:25:08.439Z,66.27
2019-04-25T02:27:39.974Z,66.54
2019-04-25T02:30:15.205Z,66.95
2019-04-25T02:32:46.202Z,66.96
2019-04-25T02:35:18.854Z,67.02
2019-04-25T02:37:50.407Z,67.07
2019-04-25T02:40:23.800Z,66.86
2019-04-25T02:42:58.145Z,66.84
2019-04-25T02:45:38.819Z,66.74
2019-04-25T02:48:24.334Z,66.70
2019-04-25T02:51:01.651Z,66.43
2019-04-25T02:53:44.632Z,66.11
2019-04-25T02:56:30.551Z,65.75
2019-04-25T02:58:49.954Z,65.32
2019-04-25T03:01:25.680Z,64.95
2019-04-25T03:03:55.062Z,64.69
2019-04-25T03:06:26.633Z,64.53
2019-04-25T03:09:00.091Z,64.23
2019-04-25T03:11:31.698Z,63.83
2019-04-25T03:14:06.621Z,63.60
2019-04-25T03:16:36.435Z,63.34
2019-04-25T03:19:09.620Z,62.94
2019-04-25T03:21:45.781Z,62.72
2019-04-25T03:24:17.311Z,62.61
2019-04-25T03:26:48.968Z,62.43
2019-04-25T03:29:20.428Z,62.32
2019-04-25T03:31:52.011Z,62.26
2019-04-25T03:34:25.306Z,62.05
2019-04-25T03:36:56.763Z,62.03
2019-04-25T03:39:28.234Z,61.73
2019-04-25T03:41:59.743Z,61.38
2019-04-25T03:44:31.333Z,61.05
2019-04-25T03:47:05.290Z,60.68
2019-04-25T03:49:36.183Z,60.17
2019-04-25T03:52:07.978Z,58.26
2019-04-25T03:54:39.471Z,56.97
2019-04-25T03:57:10.946Z,55.49
2019-04-25T03:59:43.672Z,54.24
2019-04-25T04:02:15.582Z,53.44
2019-04-25T04:04:47.048Z,51.35
2019-04-25T04:07:18.590Z,51.01
2019-04-25T04:09:50.137Z,49.75
2019-04-25T04:12:21.619Z,49.19
2019-04-25T04:14:53.783Z,49.12
2019-04-25T04:17:33.911Z,48.46
2019-04-25T04:20:09.399Z,47.53
2019-04-25T04:22:41.769Z,46.73
2019-04-25T04:25:14.755Z,46.86
2019-04-25T04:27:46.228Z,45.35
2019-04-25T04:30:31.436Z,44.94
2019-04-25T04:33:03.637Z,43.67
2019-04-25T04:35:36.560Z,42.90
2019-04-25T04:38:08.314Z,42.66
2019-04-25T04:40:40.087Z,42.99
2019-04-25T04:43:12.077Z,41.21
2019-04-25T04:45:45.630Z,40.40
2019-04-25T04:48:17.297Z,39.89
2019-04-25T04:50:49.163Z,39.83
2019-04-25T04:53:21.025Z,39.54
2019-04-25T04:55:54.309Z,38.90
2019-04-25T04:58:25.896Z,38.50
2019-04-25T05:00:57.947Z,37.62
2019-04-25T05:03:37.311Z,37.53
2019-04-25T05:06:10.997Z,37.51
2019-04-25T05:08:47.444Z,37.01
2019-04-25T05:11:19.903Z,37.95
2019-04-25T05:13:51.581Z,37.12
2019-04-25T05:16:23.871Z,36.33
2019-04-25T05:18:55.512Z,35.82
2019-04-25T05:21:27.474Z,35.99
2019-04-25T05:23:59.342Z,35.50
2019-04-25T05:26:31.094Z,34.21
2019-04-25T05:29:03.668Z,33.57
2019-04-25T05:31:39.640Z,33.79
2019-04-25T05:34:11.189Z,32.90
2019-04-25T05:36:43.852Z,33.30
2019-04-25T05:39:17.780Z,32.70
2019-04-25T05:41:59.670Z,32.40
2019-04-25T05:44:31.553Z,32.39
2019-04-25T05:47:04.145Z,32.35
2019-04-25T05:49:36.080Z,32.67
2019-04-25T05:52:08.048Z,32.53
2019-04-25T05:54:39.846Z,33.23
2019-04-25T05:57:11.563Z,32.85
2019-04-25T05:59:43.720Z,33.37
2019-04-25T06:02:15.488Z,32.46
2019-04-25T06:04:47.151Z,32.63
2019-04-25T06:07:19.403Z,32.00
2019-04-25T06:09:54.295Z,32.68
2019-04-25T06:12:31.435Z,32.32
2019-04-25T06:15:04.630Z,32.58
2019-04-25T06:17:38.947Z,31.68
2019-04-25T06:20:13.433Z,31.76
2019-04-25T06:22:56.083Z,32.10
2019-04-25T06:25:32.990Z,32.33
2019-04-25T06:28:13.736Z,31.27
2019-04-25T06:30:45.482Z,31.95
2019-04-25T06:33:17.317Z,32.04
2019-04-25T06:35:49.202Z,31.57
2019-04-25T06:38:21.349Z,32.08
2019-04-25T06:40:53.587Z,31.69
2019-04-25T06:43:25.899Z,31.57
2019-04-25T06:46:15.287Z,31.96
2019-04-25T06:48:48.790Z,30.23
2019-04-25T06:51:22.426Z,30.57
2019-04-25T06:53:54.140Z,30.18
2019-04-25T06:56:26.130Z,30.26
2019-04-25T06:58:57.868Z,30.43
2019-04-25T07:01:30.422Z,30.15
2019-04-25T07:04:02.043Z,30.85
2019-04-25T07:06:34.984Z,30.66
2019-04-25T07:09:11.062Z,30.40
2019-04-25T07:11:43.999Z,31.28
2019-04-25T07:14:15.935Z,30.95
2019-04-25T07:16:47.867Z,30.16
2019-04-25T07:19:19.728Z,30.83
2019-04-25T07:21:51.646Z,31.17
2019-04-25T07:24:24.847Z,29.14
2019-04-25T07:26:58.480Z,29.55
2019-04-25T07:29:38.325Z,28.49
2019-04-25T07:32:20.729Z,28.94
2019-04-25T07:34:53.622Z,28.61
2019-04-25T07:37:29.839Z,29.50
2019-04-25T07:40:01.646Z,29.40
2019-04-25T07:42:35.442Z,28.74
2019-04-25T07:45:14.075Z,28.22
2019-04-25T07:47:45.961Z,29.13
2019-04-25T07:50:17.994Z,27.75
2019-04-25T07:52:49.549Z,28.28
2019-04-25T07:55:21.312Z,27.13
2019-04-25T07:57:53.418Z,27.05
2019-04-25T08:00:27.282Z,26.67
2019-04-25T08:02:58.843Z,27.70
2019-04-25T08:05:31.390Z,27.51
2019-04-25T08:08:03.556Z,27.20
2019-04-25T08:11:01.140Z,26.67
2019-04-25T08:13:36.199Z,27.19
2019-04-25T08:16:09.810Z,27.48
2019-04-25T08:18:43.367Z,28.63
2019-04-25T08:21:15.395Z,28.62
2019-04-25T08:23:47.687Z,26.74
2019-04-25T08:26:19.272Z,25.99
2019-04-25T08:28:55.705Z,26.85
2019-04-25T08:31:24.119Z,26.59
2019-04-25T08:33:55.857Z,26.53
2019-04-25T08:36:27.754Z,25.96
2019-04-25T08:38:59.603Z,26.58
2019-04-25T08:41:32.406Z,25.38
2019-04-25T08:44:04.871Z,24.93
2019-04-25T08:46:38.414Z,25.14
2019-04-25T08:49:27.624Z,23.71
2019-04-25T08:52:00.204Z,24.22
2019-04-25T08:54:49.666Z,25.34
2019-04-25T08:57:25.741Z,24.83
2019-04-25T09:00:01.927Z,23.82
2019-04-25T09:02:38.527Z,23.17
2019-04-25T09:05:24.879Z,23.41
2019-04-25T09:07:56.508Z,23.05
2019-04-25T09:10:28.297Z,22.80
2019-04-25T09:13:00.435Z,23.75
2019-04-25T09:15:33.729Z,23.28
2019-04-25T09:18:05.697Z,23.78
2019-04-25T09:20:39.606Z,24.63
2019-04-25T09:23:11.287Z,23.65
2019-04-25T09:25:45.949Z,22.89
2019-04-25T09:28:17.008Z,23.93
2019-04-25T09:30:48.545Z,21.27
2019-04-25T09:33:20.017Z,21.97
2019-04-25T09:35:53.987Z,22.50
2019-04-25T09:38:25.614Z,22.32
2019-04-25T09:40:57.388Z,22.53
2019-04-25T09:43:29.347Z,22.99
2019-04-25T09:46:13.287Z,23.22
2019-04-25T09:48:58.951Z,22.93
2019-04-25T09:51:33.577Z,24.14
2019-04-25T09:54:23.927Z,23.86
2019-04-25T09:56:57.242Z,22.72
2019-04-25T09:59:30.131Z,21.08
2019-04-25T10:02:01.905Z,21.50
2019-04-25T10:04:34.672Z,23.33
2019-04-25T10:07:06.649Z,20.16
2019-04-25T10:09:38.312Z,19.56
2019-04-25T10:12:10.069Z,19.63
2019-04-25T10:14:59.117Z,19.07
2019-04-25T10:17:31.089Z,20.48
2019-04-25T10:20:03.057Z,20.60
2019-04-25T10:22:34.987Z,20.21
2019-04-25T10:25:07.103Z,21.41
2019-04-25T10:27:39.272Z,21.32
2019-04-25T10:30:17.608Z,20.13
2019-04-25T10:32:45.388Z,20.39
2019-04-25T10:35:18.327Z,20.89
2019-04-25T10:37:50.423Z,21.30
2019-04-25T10:40:24.709Z,21.55
2019-04-25T10:42:55.889Z,20.67
2019-04-25T10:45:27.965Z,24.18
2019-04-25T10:47:59.688Z,21.93
2019-04-25T10:50:31.655Z,24.50
2019-04-25T10:53:04.043Z,23.22
2019-04-25T10:55:35.848Z,21.81
2019-04-25T10:58:07.678Z,23.30
2019-04-25T11:00:46.247Z,23.42
2019-04-25T11:03:35.725Z,21.23
2019-04-25T11:06:07.792Z,24.16
2019-04-25T11:08:40.414Z,23.19
2019-04-25T11:11:13.852Z,21.14
2019-04-25T11:13:46.643Z,23.53
2019-04-25T11:16:18.413Z,22.54
2019-04-25T11:18:50.174Z,22.36
2019-04-25T11:21:21.732Z,23.55
2019-04-25T11:23:55.539Z,23.22
2019-04-25T11:26:27.403Z,20.98
2019-04-25T11:28:58.951Z,23.21
2019-04-25T11:31:33.735Z,21.53
2019-04-25T11:34:05.649Z,23.54
2019-04-25T11:36:37.405Z,23.42
2019-04-25T11:39:29.853Z,23.52
2019-04-25T11:42:02.238Z,22.16
2019-04-25T11:44:34.993Z,22.33
2019-04-25T11:47:08.614Z,22.81
2019-04-25T11:49:40.356Z,22.33
2019-04-25T11:52:21.402Z,25.24
2019-04-25T11:54:46.735Z,22.89
2019-04-25T11:57:18.709Z,22.27
2019-04-25T11:59:50.652Z,22.47
2019-04-25T12:02:23.962Z,22.46
2019-04-25T12:04:55.552Z,24.37
2019-04-25T12:07:27.111Z,24.48
2019-04-25T12:09:58.753Z,21.76
2019-04-25T12:12:30.404Z,21.48
2019-04-25T12:15:01.867Z,22.82
2019-04-25T12:17:35.380Z,21.03
2019-04-25T12:20:07.916Z,22.94
2019-04-25T12:22:39.547Z,22.37
2019-04-25T12:25:11.112Z,21.95
2019-04-25T12:27:45.474Z,22.87
2019-04-25T12:30:16.458Z,23.37
2019-04-25T12:32:48.043Z,23.29
2019-04-25T12:35:19.712Z,21.82
2019-04-25T12:37:52.178Z,22.02
2019-04-25T12:40:24.583Z,22.16
2019-04-25T12:42:56.541Z,22.37
2019-04-25T12:45:34.284Z,21.99
2019-04-25T12:48:07.977Z,21.32
2019-04-25T12:50:39.584Z,22.51
2019-04-25T12:53:11.040Z,22.97
2019-04-25T12:55:44.180Z,21.81
2019-04-25T12:58:15.886Z,22.96
2019-04-25T13:00:52.432Z,22.59
2019-04-25T13:03:21.049Z,22.52
2019-04-25T13:05:52.663Z,22.85
2019-04-25T13:08:25.282Z,23.24
2019-04-25T13:11:07.572Z,21.31
2019-04-25T13:13:29.958Z,21.86
2019-04-25T13:16:01.499Z,23.17
2019-04-25T13:18:33.067Z,21.01
2019-04-25T13:21:05.521Z,20.86
2019-04-25T13:23:37.214Z,21.95
2019-04-25T13:26:08.789Z,20.33
2019-04-25T13:28:47.725Z,22.83
2019-04-25T13:31:23.830Z,22.03
2019-04-25T13:34:04.662Z,21.30
2019-04-25T13:36:36.327Z,21.88
2019-04-25T13:39:10.072Z,22.17
2019-04-25T13:41:43.020Z,22.92
2019-04-25T13:44:15.465Z,21.71
2019-04-25T13:46:47.810Z,21.45
2019-04-25T13:49:19.482Z,21.78
2019-04-25T13:51:51.818Z,22.10
2019-04-25T13:54:24.048Z,21.98
2019-04-25T13:56:56.582Z,22.78
2019-04-25T13:59:28.372Z,23.13
2019-04-25T14:02:01.493Z,22.25
2019-04-25T14:04:35.593Z,23.14
2019-04-25T14:07:07.215Z,22.60
2019-04-25T14:09:39.020Z,23.08
2019-04-25T14:12:10.803Z,23.74
2019-04-25T14:14:43.805Z,22.59
2019-04-25T14:17:20.427Z,23.39
2019-04-25T14:20:04.180Z,24.82
2019-04-25T14:22:36.073Z,23.52
2019-04-25T14:25:08.628Z,22.15
2019-04-25T14:27:40.237Z,21.62
2019-04-25T14:30:13.555Z,20.36
2019-04-25T14:32:45.235Z,21.72
2019-04-25T14:35:16.720Z,22.51
2019-04-25T14:37:48.194Z,21.92
2019-04-25T14:40:19.761Z,22.38
2019-04-25T14:42:51.485Z,20.53
2019-04-25T14:45:23.080Z,20.67
2019-04-25T14:47:54.571Z,21.33
2019-04-25T14:50:26.997Z,20.59
2019-04-25T14:52:58.962Z,21.35
2019-04-25T14:55:41.306Z,22.12
2019-04-25T14:58:17.474Z,20.61
2019-04-25T15:00:50.590Z,21.66
2019-04-25T15:03:23.091Z,21.64
2019-04-25T15:05:55.851Z,22.20
2019-04-25T15:08:27.397Z,20.89
2019-04-25T15:10:59.016Z,21.30
2019-04-25T15:13:30.506Z,22.21
2019-04-25T15:16:04.756Z,21.96
2019-04-25T15:18:46.014Z,22.25
2019-04-25T15:21:08.611Z,22.78
2019-04-25T15:23:40.068Z,22.59
2019-04-25T15:26:11.589Z,22.46
2019-04-25T15:28:43.634Z,22.59
2019-04-25T15:31:16.289Z,22.85
2019-04-25T15:33:47.998Z,23.53
2019-04-25T15:36:27.195Z,24.21
2019-04-25T15:39:03.100Z,23.66
2019-04-25T15:41:39.529Z,23.74
2019-04-25T15:44:29.141Z,24.51
2019-04-25T15:47:02.350Z,24.79
2019-04-25T15:49:34.570Z,24.07
2019-04-25T15:52:07.717Z,24.97
2019-04-25T15:54:39.464Z,24.71
2019-04-25T15:57:11.263Z,24.96
2019-04-25T15:59:42.831Z,25.32
2019-04-25T16:02:14.638Z,25.43
2019-04-25T16:04:46.367Z,26.09
2019-04-25T16:07:17.950Z,26.89
2019-04-25T16:09:49.647Z,27.95
2019-04-25T16:12:21.438Z,28.44
2019-04-25T16:14:53.023Z,28.87
2019-04-25T16:17:27.126Z,30.05
2019-04-25T16:19:58.960Z,30.88
2019-04-25T16:22:30.663Z,31.28
2019-04-25T16:25:02.240Z,31.39
2019-04-25T16:27:33.851Z,31.73
2019-04-25T16:30:07.729Z,32.07
2019-04-25T16:32:39.328Z,32.42
2019-04-25T16:35:11.005Z,33.05
2019-04-25T16:37:42.696Z,33.53
2019-04-25T16:40:14.431Z,34.08
2019-04-25T16:42:46.889Z,34.44
2019-04-25T16:45:19.207Z,34.97
2019-04-25T16:47:50.987Z,35.54
2019-04-25T16:50:25.767Z,36.21
2019-04-25T16:53:40.085Z,37.92
2019-04-25T16:56:11.879Z,37.16
2019-04-25T16:58:43.541Z,37.80
2019-04-25T17:01:15.507Z,37.79
2019-04-25T17:03:47.376Z,39.13
2019-04-25T17:06:19.465Z,38.34
2019-04-25T17:08:50.990Z,38.72
2019-04-25T17:11:22.850Z,38.81
2019-04-25T17:13:58.709Z,38.99
2019-04-25T17:16:34.862Z,39.99
2019-04-25T17:19:08.126Z,40.31
2019-04-25T17:21:41.048Z,40.44
2019-04-25T17:24:13.010Z,40.34
2019-04-25T17:26:44.878Z,40.64
2019-04-25T17:29:18.376Z,39.75
2019-04-25T17:31:57.918Z,39.90
2019-04-25T17:34:46.965Z,39.10
2019-04-25T17:37:20.565Z,39.52
2019-04-25T17:39:56.932Z,40.78
2019-04-25T17:42:28.601Z,41.87
2019-04-25T17:45:00.461Z,41.23
2019-04-25T17:47:33.121Z,41.55
2019-04-25T17:50:07.143Z,41.65
2019-04-25T17:52:38.700Z,42.79
2019-04-25T17:55:10.769Z,43.60
2019-04-25T17:57:42.339Z,43.65
2019-04-25T18:02:58.691Z,44.97
2019-04-25T18:05:24.356Z,46.00
2019-04-25T18:07:56.051Z,46.37
2019-04-25T18:10:28.617Z,46.57
2019-04-25T18:13:00.467Z,45.97
2019-04-25T18:15:34.062Z,46.31
2019-04-25T18:18:07.354Z,46.05
2019-04-25T18:20:41.022Z,44.96
2019-04-25T18:23:14.463Z,44.75
2019-04-25T18:26:04.234Z,45.74
2019-04-25T18:28:43.675Z,46.59
2019-04-25T18:31:15.731Z,46.37
2019-04-25T18:33:49.538Z,45.62
2019-04-25T18:36:39.205Z,46.69
2019-04-25T18:39:18.746Z,47.07
2019-04-25T18:42:04.112Z,46.69
2019-04-25T18:44:36.707Z,47.07
2019-04-25T18:47:08.348Z,48.00
2019-04-25T18:49:48.512Z,49.12
2019-04-25T18:52:38.639Z,49.38
2019-04-25T18:55:13.410Z,50.10
2019-04-25T18:58:01.953Z,49.46
2019-04-25T19:00:49.777Z,50.09
2019-04-25T19:03:52.850Z,49.85
2019-04-25T19:06:52.782Z,49.61
2019-04-25T19:09:20.554Z,50.50
2019-04-25T19:12:00.305Z,51.05
2019-04-25T19:14:35.098Z,51.83
2019-04-25T19:17:11.569Z,52.25
2019-04-25T19:19:45.620Z,52.43
2019-04-25T19:29:52.483Z,67.11
2019-04-25T19:32:23.899Z,56.27
2019-04-25T19:35:09.073Z,54.90
2019-04-25T19:37:41.845Z,55.37
2019-04-25T19:40:37.453Z,53.63
2019-04-25T19:43:16.711Z,53.33
2019-04-25T19:46:06.735Z,51.91
2019-04-25T19:48:41.319Z,49.85
2019-04-25T19:51:14.426Z,49.52
2019-04-25T19:53:47.541Z,50.28
2019-04-25T19:56:19.207Z,49.62
2019-04-25T19:58:52.847Z,49.24
2019-04-25T20:01:24.845Z,48.70
2019-04-25T20:04:17.027Z,49.31
2019-04-25T20:07:06.699Z,49.70
2019-04-25T20:09:53.158Z,51.65
2019-04-25T20:12:30.742Z,54.57
2019-04-25T20:15:03.801Z,54.43
2019-04-25T20:17:39.723Z,53.55
2019-04-25T20:20:29.768Z,53.54
2019-04-25T20:23:02.812Z,52.83
2019-04-25T20:25:36.310Z,53.43
2019-04-25T20:28:27.339Z,53.44
2019-04-25T20:30:58.886Z,53.49
2019-04-25T20:33:32.274Z,55.26
2019-04-25T20:36:17.011Z,55.87
2019-04-25T20:38:40.641Z,54.91
2019-04-25T20:41:13.153Z,56.00
2019-04-25T20:43:47.543Z,55.35
2019-04-25T20:46:19.518Z,55.50
2019-04-25T20:48:52.316Z,55.34
2019-04-25T20:51:24.376Z,56.17
2019-04-25T20:53:57.084Z,55.87
2019-04-25T20:56:28.740Z,54.28
2019-04-25T20:59:00.250Z,54.01
2019-04-25T21:01:32.597Z,53.85
2019-04-25T21:04:12.985Z,55.12
2019-04-25T21:06:43.414Z,56.03
2019-04-25T21:09:17.621Z,56.94
2019-04-25T21:11:51.283Z,55.58
2019-04-25T21:14:26.441Z,55.68
2019-04-25T21:17:04.221Z,56.31
2019-04-25T21:19:38.124Z,55.89
2019-04-25T21:22:11.048Z,56.07
2019-04-25T21:24:42.956Z,56.53
2019-04-25T21:27:16.599Z,55.57
2019-04-25T21:29:49.709Z,55.36
2019-04-25T21:32:22.778Z,55.11
2019-04-25T21:34:57.321Z,54.66
2019-04-25T21:37:28.838Z,54.64
2019-04-25T21:40:07.840Z,55.07
2019-04-25T21:42:41.384Z,54.92
2019-04-25T21:45:14.099Z,56.19
2019-04-25T21:47:45.670Z,56.69
2019-04-25T21:50:22.024Z,56.11
2019-04-25T21:52:55.392Z,58.65
2019-04-25T21:55:27.271Z,58.93
2019-04-25T21:57:59.057Z,58.24
2019-04-25T22:00:51.543Z,58.56
2019-04-25T22:03:27.020Z,57.72
2019-04-25T22:05:58.989Z,57.72
2019-04-25T22:08:31.024Z,57.28
2019-04-25T22:11:03.392Z,58.58
2019-04-25T22:13:36.909Z,58.16
2019-04-25T22:16:13.240Z,58.47
2019-04-25T22:18:45.218Z,58.24
2019-04-25T22:21:17.150Z,57.80
2019-04-25T22:24:03.143Z,58.39
2019-04-25T22:26:25.336Z,59.73
2019-04-25T22:28:57.797Z,60.42
2019-04-25T22:31:31.457Z,59.50
2019-04-25T22:34:10.540Z,59.31
2019-04-25T22:36:42.709Z,59.48
2019-04-25T22:39:15.871Z,59.53
2019-04-25T22:41:50.165Z,58.69
2019-04-25T22:44:22.630Z,58.51
2019-04-25T22:47:14.024Z,58.19
2019-04-25T22:49:47.485Z,58.82
2019-04-25T22:52:20.313Z,57.69
2019-04-25T22:54:52.990Z,57.62
2019-04-25T22:57:25.058Z,57.87
2019-04-25T22:59:57.056Z,58.04
2019-04-25T23:02:43.472Z,58.42
2019-04-25T23:05:16.651Z,58.41
2019-04-25T23:07:49.339Z,58.30
2019-04-25T23:10:21.186Z,58.71
2019-04-25T23:12:52.807Z,59.09
2019-04-25T23:15:24.461Z,58.91
2019-04-25T23:17:57.876Z,58.83
2019-04-25T23:20:29.510Z,58.99
2019-04-25T23:23:04.172Z,60.40
2019-04-25T23:25:38.080Z,59.92
2019-04-25T23:28:14.400Z,60.32
2019-04-25T23:30:58.836Z,60.32
2019-04-25T23:33:30.452Z,60.27
2019-04-25T23:36:02.401Z,60.52
2019-04-25T23:38:33.982Z,60.04
2019-04-25T23:41:07.166Z,60.14
2019-04-25T23:43:39.830Z,60.10
2019-04-25T23:46:11.972Z,59.70
2019-04-25T23:48:44.452Z,59.90
2019-04-25T23:51:16.114Z,60.03
2019-04-25T23:53:47.878Z,60.19
2019-04-25T23:56:19.546Z,59.63
2019-04-25T23:58:51.403Z,59.45
